sensor_id;sensor_type;location;lat;lon;timestamp;P1;durP1;ratioP1;P2;durP2;ratioP2
8159;SDS011;27404;52.398;9.646;2022-09-09T00:04:34;3.93;;;2.40;;
8159;SDS011;27404;52.398;9.646;2022-09-09T00:12:40;6.97;;;2.07;;
8159;SDS011;27404;52.398;9.646;2022-09-09T00:15:10;6.67;;;2.43;;
8159;SDS011;27404;52.398;9.646;2022-09-09T00:17:39;3.20;;;2.27;;
8159;SDS011;27404;52.398;9.646;2022-09-09T00:20:32;3.40;;;1.90;;
8159;SDS011;27404;52.398;9.646;2022-09-09T00:23:10;4.53;;;2.20;;
8159;SDS011;27404;52.398;9.646;2022-09-09T00:25:42;2.93;;;2.23;;
8159;SDS011;27404;52.398;9.646;2022-09-09T00:28:25;3.70;;;2.37;;
8159;SDS011;27404;52.398;9.646;2022-09-09T00:30:55;3.77;;;2.27;;
8159;SDS011;27404;52.398;9.646;2022-09-09T00:33:23;4.10;;;1.97;;
8159;SDS011;27404;52.398;9.646;2022-09-09T00:38:32;4.90;;;1.90;;
8159;SDS011;27404;52.398;9.646;2022-09-09T00:41:06;5.37;;;2.37;;
8159;SDS011;27404;52.398;9.646;2022-09-09T00:43:39;4.93;;;2.83;;
8159;SDS011;27404;52.398;9.646;2022-09-09T00:46:10;4.53;;;2.30;;
8159;SDS011;27404;52.398;9.646;2022-09-09T00:51:58;4.50;;;2.17;;
8159;SDS011;27404;52.398;9.646;2022-09-09T01:05:46;4.33;;;2.07;;
8159;SDS011;27404;52.398;9.646;2022-09-09T01:11:22;4.83;;;2.00;;
8159;SDS011;27404;52.398;9.646;2022-09-09T01:13:56;6.63;;;2.00;;
8159;SDS011;27404;52.398;9.646;2022-09-09T01:16:29;6.00;;;2.17;;
8159;SDS011;27404;52.398;9.646;2022-09-09T01:18:56;2.50;;;1.90;;
8159;SDS011;27404;52.398;9.646;2022-09-09T01:21:31;2.63;;;1.87;;
8159;SDS011;27404;52.398;9.646;2022-09-09T01:26:49;4.13;;;1.90;;
8159;SDS011;27404;52.398;9.646;2022-09-09T01:29:22;3.67;;;2.07;;
8159;SDS011;27404;52.398;9.646;2022-09-09T01:31:55;3.37;;;2.20;;
8159;SDS011;27404;52.398;9.646;2022-09-09T01:34:44;5.77;;;1.93;;
8159;SDS011;27404;52.398;9.646;2022-09-09T01:37:10;4.13;;;2.07;;
8159;SDS011;27404;52.398;9.646;2022-09-09T01:39:37;3.60;;;2.10;;
8159;SDS011;27404;52.398;9.646;2022-09-09T01:42:06;6.30;;;2.17;;
8159;SDS011;27404;52.398;9.646;2022-09-09T01:44:34;5.03;;;1.83;;
8159;SDS011;27404;52.398;9.646;2022-09-09T01:47:00;2.90;;;1.43;;
8159;SDS011;27404;52.398;9.646;2022-09-09T01:49:26;4.03;;;1.83;;
8159;SDS011;27404;52.398;9.646;2022-09-09T01:51:53;2.80;;;1.53;;
8159;SDS011;27404;52.398;9.646;2022-09-09T01:54:21;2.97;;;1.73;;
8159;SDS011;27404;52.398;9.646;2022-09-09T02:02:57;3.27;;;1.30;;
8159;SDS011;27404;52.398;9.646;2022-09-09T02:08:47;3.43;;;1.20;;
8159;SDS011;27404;52.398;9.646;2022-09-09T02:11:15;4.63;;;1.70;;
8159;SDS011;27404;52.398;9.646;2022-09-09T02:13:43;4.13;;;1.60;;
8159;SDS011;27404;52.398;9.646;2022-09-09T02:19:38;3.07;;;1.40;;
8159;SDS011;27404;52.398;9.646;2022-09-09T02:22:11;5.53;;;1.60;;
8159;SDS011;27404;52.398;9.646;2022-09-09T02:24:37;3.10;;;1.20;;
8159;SDS011;27404;52.398;9.646;2022-09-09T02:27:06;4.17;;;1.30;;
8159;SDS011;27404;52.398;9.646;2022-09-09T02:29:34;5.13;;;1.40;;
8159;SDS011;27404;52.398;9.646;2022-09-09T02:32:05;1.97;;;1.23;;
8159;SDS011;27404;52.398;9.646;2022-09-09T02:34:34;2.83;;;1.40;;
8159;SDS011;27404;52.398;9.646;2022-09-09T02:37:05;3.93;;;1.10;;
8159;SDS011;27404;52.398;9.646;2022-09-09T02:39:33;3.33;;;1.30;;
8159;SDS011;27404;52.398;9.646;2022-09-09T02:41:58;3.23;;;1.30;;
8159;SDS011;27404;52.398;9.646;2022-09-09T02:44:24;2.33;;;1.50;;
8159;SDS011;27404;52.398;9.646;2022-09-09T02:47:07;3.77;;;1.60;;
8159;SDS011;27404;52.398;9.646;2022-09-09T02:58:14;2.17;;;1.50;;
8159;SDS011;27404;52.398;9.646;2022-09-09T03:00:43;4.80;;;1.50;;
8159;SDS011;27404;52.398;9.646;2022-09-09T03:03:12;5.90;;;1.77;;
8159;SDS011;27404;52.398;9.646;2022-09-09T03:05:37;1.93;;;1.37;;
8159;SDS011;27404;52.398;9.646;2022-09-09T03:08:03;3.07;;;1.43;;
8159;SDS011;27404;52.398;9.646;2022-09-09T03:10:30;2.17;;;1.40;;
8159;SDS011;27404;52.398;9.646;2022-09-09T03:12:56;4.30;;;1.63;;
8159;SDS011;27404;52.398;9.646;2022-09-09T03:15:22;5.17;;;1.60;;
8159;SDS011;27404;52.398;9.646;2022-09-09T03:17:48;3.20;;;1.53;;
8159;SDS011;27404;52.398;9.646;2022-09-09T03:20:13;3.33;;;1.40;;
8159;SDS011;27404;52.398;9.646;2022-09-09T03:22:39;4.90;;;1.47;;
8159;SDS011;27404;52.398;9.646;2022-09-09T03:25:05;4.53;;;1.40;;
8159;SDS011;27404;52.398;9.646;2022-09-09T03:27:31;3.90;;;1.40;;
8159;SDS011;27404;52.398;9.646;2022-09-09T03:29:57;3.10;;;1.50;;
8159;SDS011;27404;52.398;9.646;2022-09-09T03:32:23;2.77;;;1.30;;
8159;SDS011;27404;52.398;9.646;2022-09-09T03:34:50;3.23;;;1.37;;
8159;SDS011;27404;52.398;9.646;2022-09-09T03:37:17;2.77;;;1.40;;
8159;SDS011;27404;52.398;9.646;2022-09-09T03:39:45;2.37;;;1.17;;
8159;SDS011;27404;52.398;9.646;2022-09-09T03:42:14;3.80;;;2.47;;
8159;SDS011;27404;52.398;9.646;2022-09-09T03:44:43;6.63;;;1.40;;
8159;SDS011;27404;52.398;9.646;2022-09-09T03:47:18;4.47;;;1.40;;
8159;SDS011;27404;52.398;9.646;2022-09-09T03:49:46;4.73;;;1.50;;
8159;SDS011;27404;52.398;9.646;2022-09-09T03:52:13;4.67;;;1.40;;
8159;SDS011;27404;52.398;9.646;2022-09-09T03:54:39;3.27;;;1.50;;
8159;SDS011;27404;52.398;9.646;2022-09-09T03:57:06;5.00;;;1.60;;
8159;SDS011;27404;52.398;9.646;2022-09-09T03:59:31;4.40;;;1.37;;
8159;SDS011;27404;52.398;9.646;2022-09-09T04:01:57;2.00;;;1.20;;
8159;SDS011;27404;52.398;9.646;2022-09-09T04:04:24;4.67;;;1.67;;
8159;SDS011;27404;52.398;9.646;2022-09-09T04:06:51;4.73;;;1.50;;
8159;SDS011;27404;52.398;9.646;2022-09-09T04:09:17;3.27;;;1.50;;
8159;SDS011;27404;52.398;9.646;2022-09-09T04:11:43;2.67;;;1.37;;
8159;SDS011;27404;52.398;9.646;2022-09-09T04:14:08;2.90;;;1.37;;
8159;SDS011;27404;52.398;9.646;2022-09-09T04:16:34;5.27;;;1.60;;
8159;SDS011;27404;52.398;9.646;2022-09-09T04:19:02;3.33;;;1.70;;
8159;SDS011;27404;52.398;9.646;2022-09-09T04:21:29;3.10;;;1.40;;
8159;SDS011;27404;52.398;9.646;2022-09-09T04:23:55;6.60;;;1.70;;
8159;SDS011;27404;52.398;9.646;2022-09-09T04:26:21;5.33;;;2.37;;
8159;SDS011;27404;52.398;9.646;2022-09-09T04:28:47;5.07;;;1.60;;
8159;SDS011;27404;52.398;9.646;2022-09-09T04:31:19;6.23;;;1.70;;
8159;SDS011;27404;52.398;9.646;2022-09-09T04:33:48;3.57;;;1.40;;
8159;SDS011;27404;52.398;9.646;2022-09-09T04:36:14;5.93;;;1.60;;
8159;SDS011;27404;52.398;9.646;2022-09-09T04:38:40;3.57;;;1.70;;
8159;SDS011;27404;52.398;9.646;2022-09-09T04:41:06;3.17;;;1.73;;
8159;SDS011;27404;52.398;9.646;2022-09-09T04:43:32;3.53;;;1.80;;
8159;SDS011;27404;52.398;9.646;2022-09-09T04:45:58;4.63;;;1.53;;
8159;SDS011;27404;52.398;9.646;2022-09-09T04:48:26;3.17;;;1.57;;
8159;SDS011;27404;52.398;9.646;2022-09-09T04:50:59;7.27;;;1.90;;
8159;SDS011;27404;52.398;9.646;2022-09-09T04:53:27;4.70;;;1.60;;
8159;SDS011;27404;52.398;9.646;2022-09-09T04:56:00;5.00;;;1.90;;
8159;SDS011;27404;52.398;9.646;2022-09-09T04:58:30;5.80;;;1.60;;
8159;SDS011;27404;52.398;9.646;2022-09-09T05:01:02;4.43;;;1.60;;
8159;SDS011;27404;52.398;9.646;2022-09-09T05:03:38;4.90;;;1.80;;
8159;SDS011;27404;52.398;9.646;2022-09-09T05:06:08;5.97;;;1.67;;
8159;SDS011;27404;52.398;9.646;2022-09-09T05:08:36;5.93;;;2.00;;
8159;SDS011;27404;52.398;9.646;2022-09-09T05:11:02;3.37;;;1.70;;
8159;SDS011;27404;52.398;9.646;2022-09-09T05:13:29;4.20;;;1.70;;
8159;SDS011;27404;52.398;9.646;2022-09-09T05:15:56;5.57;;;1.90;;
8159;SDS011;27404;52.398;9.646;2022-09-09T05:18:21;5.13;;;1.90;;
8159;SDS011;27404;52.398;9.646;2022-09-09T05:20:47;4.93;;;1.63;;
8159;SDS011;27404;52.398;9.646;2022-09-09T05:23:13;5.73;;;1.83;;
8159;SDS011;27404;52.398;9.646;2022-09-09T05:25:39;4.03;;;1.53;;
8159;SDS011;27404;52.398;9.646;2022-09-09T05:28:08;5.00;;;1.93;;
8159;SDS011;27404;52.398;9.646;2022-09-09T05:30:34;3.90;;;1.70;;
8159;SDS011;27404;52.398;9.646;2022-09-09T05:32:59;4.83;;;2.23;;
8159;SDS011;27404;52.398;9.646;2022-09-09T05:35:25;4.37;;;1.60;;
8159;SDS011;27404;52.398;9.646;2022-09-09T05:37:50;4.10;;;1.63;;
8159;SDS011;27404;52.398;9.646;2022-09-09T05:40:16;6.73;;;1.97;;
8159;SDS011;27404;52.398;9.646;2022-09-09T05:42:41;4.43;;;1.83;;
8159;SDS011;27404;52.398;9.646;2022-09-09T05:45:07;4.50;;;1.63;;
8159;SDS011;27404;52.398;9.646;2022-09-09T05:47:33;4.23;;;1.33;;
8159;SDS011;27404;52.398;9.646;2022-09-09T05:49:59;2.87;;;1.40;;
8159;SDS011;27404;52.398;9.646;2022-09-09T05:52:24;6.30;;;2.00;;
8159;SDS011;27404;52.398;9.646;2022-09-09T05:54:52;3.80;;;1.40;;
8159;SDS011;27404;52.398;9.646;2022-09-09T05:57:18;5.87;;;1.70;;
8159;SDS011;27404;52.398;9.646;2022-09-09T05:59:44;3.70;;;1.50;;
8159;SDS011;27404;52.398;9.646;2022-09-09T06:02:09;2.30;;;1.50;;
8159;SDS011;27404;52.398;9.646;2022-09-09T06:04:35;3.37;;;1.73;;
8159;SDS011;27404;52.398;9.646;2022-09-09T06:07:00;6.77;;;2.03;;
8159;SDS011;27404;52.398;9.646;2022-09-09T06:09:26;3.33;;;1.50;;
8159;SDS011;27404;52.398;9.646;2022-09-09T06:11:51;2.67;;;1.40;;
8159;SDS011;27404;52.398;9.646;2022-09-09T06:14:17;6.13;;;2.00;;
8159;SDS011;27404;52.398;9.646;2022-09-09T06:16:46;5.30;;;1.60;;
8159;SDS011;27404;52.398;9.646;2022-09-09T06:19:11;2.77;;;1.50;;
8159;SDS011;27404;52.398;9.646;2022-09-09T06:21:37;3.57;;;1.40;;
8159;SDS011;27404;52.398;9.646;2022-09-09T06:24:04;2.93;;;1.57;;
8159;SDS011;27404;52.398;9.646;2022-09-09T06:26:33;3.00;;;1.43;;
8159;SDS011;27404;52.398;9.646;2022-09-09T06:29:00;4.23;;;1.50;;
8159;SDS011;27404;52.398;9.646;2022-09-09T06:31:29;4.37;;;1.57;;
8159;SDS011;27404;52.398;9.646;2022-09-09T06:33:56;4.67;;;1.60;;
8159;SDS011;27404;52.398;9.646;2022-09-09T06:36:27;3.23;;;1.40;;
8159;SDS011;27404;52.398;9.646;2022-09-09T06:38:54;5.23;;;1.70;;
8159;SDS011;27404;52.398;9.646;2022-09-09T06:41:21;4.60;;;2.23;;
8159;SDS011;27404;52.398;9.646;2022-09-09T06:43:48;2.20;;;1.30;;
8159;SDS011;27404;52.398;9.646;2022-09-09T06:46:18;4.03;;;1.57;;
8159;SDS011;27404;52.398;9.646;2022-09-09T06:48:44;4.27;;;1.30;;
8159;SDS011;27404;52.398;9.646;2022-09-09T06:51:11;5.13;;;1.40;;
8159;SDS011;27404;52.398;9.646;2022-09-09T06:53:38;5.00;;;1.80;;
8159;SDS011;27404;52.398;9.646;2022-09-09T06:58:37;3.57;;;1.50;;
8159;SDS011;27404;52.398;9.646;2022-09-09T07:01:09;3.33;;;1.40;;
8159;SDS011;27404;52.398;9.646;2022-09-09T07:03:37;5.40;;;1.47;;
8159;SDS011;27404;52.398;9.646;2022-09-09T07:06:04;3.20;;;1.30;;
8159;SDS011;27404;52.398;9.646;2022-09-09T07:08:30;2.33;;;1.30;;
8159;SDS011;27404;52.398;9.646;2022-09-09T07:11:03;3.20;;;1.33;;
8159;SDS011;27404;52.398;9.646;2022-09-09T07:13:30;4.00;;;1.50;;
8159;SDS011;27404;52.398;9.646;2022-09-09T07:16:02;6.40;;;1.70;;
8159;SDS011;27404;52.398;9.646;2022-09-09T07:18:32;4.27;;;1.43;;
8159;SDS011;27404;52.398;9.646;2022-09-09T07:20:58;2.57;;;0.90;;
8159;SDS011;27404;52.398;9.646;2022-09-09T07:23:24;4.37;;;1.10;;
8159;SDS011;27404;52.398;9.646;2022-09-09T07:25:50;2.90;;;1.37;;
8159;SDS011;27404;52.398;9.646;2022-09-09T07:28:16;7.50;;;1.30;;
8159;SDS011;27404;52.398;9.646;2022-09-09T07:30:42;3.00;;;1.20;;
8159;SDS011;27404;52.398;9.646;2022-09-09T07:33:08;3.53;;;1.13;;
8159;SDS011;27404;52.398;9.646;2022-09-09T07:35:37;5.23;;;1.50;;
8159;SDS011;27404;52.398;9.646;2022-09-09T07:38:03;4.07;;;1.47;;
8159;SDS011;27404;52.398;9.646;2022-09-09T07:40:31;4.20;;;1.30;;
8159;SDS011;27404;52.398;9.646;2022-09-09T07:42:58;3.20;;;1.60;;
8159;SDS011;27404;52.398;9.646;2022-09-09T07:45:25;2.70;;;1.30;;
8159;SDS011;27404;52.398;9.646;2022-09-09T07:47:53;5.13;;;1.57;;
8159;SDS011;27404;52.398;9.646;2022-09-09T07:50:18;5.77;;;1.70;;
8159;SDS011;27404;52.398;9.646;2022-09-09T07:52:44;3.97;;;1.90;;
8159;SDS011;27404;52.398;9.646;2022-09-09T07:55:09;4.30;;;1.43;;
8159;SDS011;27404;52.398;9.646;2022-09-09T07:57:35;2.60;;;1.30;;
8159;SDS011;27404;52.398;9.646;2022-09-09T08:00:01;4.27;;;1.40;;
8159;SDS011;27404;52.398;9.646;2022-09-09T08:02:28;4.57;;;1.30;;
8159;SDS011;27404;52.398;9.646;2022-09-09T08:04:54;4.37;;;2.23;;
8159;SDS011;27404;52.398;9.646;2022-09-09T08:07:21;4.93;;;1.37;;
8159;SDS011;27404;52.398;9.646;2022-09-09T08:09:47;3.40;;;1.43;;
8159;SDS011;27404;52.398;9.646;2022-09-09T08:12:13;3.60;;;1.20;;
8159;SDS011;27404;52.398;9.646;2022-09-09T08:14:39;3.00;;;1.17;;
8159;SDS011;27404;52.398;9.646;2022-09-09T08:17:05;3.60;;;1.37;;
8159;SDS011;27404;52.398;9.646;2022-09-09T08:19:30;4.70;;;1.20;;
8159;SDS011;27404;52.398;9.646;2022-09-09T08:21:59;3.33;;;1.20;;
8159;SDS011;27404;52.398;9.646;2022-09-09T08:24:26;5.33;;;1.50;;
8159;SDS011;27404;52.398;9.646;2022-09-09T08:26:52;4.07;;;1.20;;
8159;SDS011;27404;52.398;9.646;2022-09-09T08:29:18;2.77;;;1.10;;
8159;SDS011;27404;52.398;9.646;2022-09-09T08:31:54;3.40;;;1.20;;
8159;SDS011;27404;52.398;9.646;2022-09-09T08:34:22;3.83;;;1.07;;
8159;SDS011;27404;52.398;9.646;2022-09-09T08:36:49;5.40;;;1.17;;
8159;SDS011;27404;52.398;9.646;2022-09-09T08:39:17;2.00;;;0.97;;
8159;SDS011;27404;52.398;9.646;2022-09-09T08:47:23;4.23;;;1.30;;
8159;SDS011;27404;52.398;9.646;2022-09-09T08:55:24;7.60;;;1.03;;
8159;SDS011;27404;52.398;9.646;2022-09-09T08:57:51;3.77;;;1.10;;
8159;SDS011;27404;52.398;9.646;2022-09-09T09:00:19;4.07;;;1.30;;
8159;SDS011;27404;52.398;9.646;2022-09-09T09:02:54;6.07;;;1.20;;
8159;SDS011;27404;52.398;9.646;2022-09-09T09:05:37;6.93;;;1.30;;
8159;SDS011;27404;52.398;9.646;2022-09-09T09:11:08;4.17;;;1.40;;
8159;SDS011;27404;52.398;9.646;2022-09-09T09:16:00;3.00;;;0.80;;
8159;SDS011;27404;52.398;9.646;2022-09-09T09:18:39;5.07;;;1.23;;
8159;SDS011;27404;52.398;9.646;2022-09-09T09:23:57;3.73;;;1.10;;
8159;SDS011;27404;52.398;9.646;2022-09-09T09:26:25;3.67;;;1.00;;
8159;SDS011;27404;52.398;9.646;2022-09-09T09:28:57;3.10;;;0.93;;
8159;SDS011;27404;52.398;9.646;2022-09-09T09:31:25;3.80;;;1.17;;
8159;SDS011;27404;52.398;9.646;2022-09-09T09:33:54;4.13;;;1.20;;
8159;SDS011;27404;52.398;9.646;2022-09-09T09:36:24;5.53;;;1.20;;
8159;SDS011;27404;52.398;9.646;2022-09-09T09:39:00;2.83;;;0.90;;
8159;SDS011;27404;52.398;9.646;2022-09-09T09:43:59;4.77;;;1.10;;
8159;SDS011;27404;52.398;9.646;2022-09-09T09:46:25;3.53;;;0.90;;
8159;SDS011;27404;52.398;9.646;2022-09-09T09:48:58;4.20;;;1.20;;
8159;SDS011;27404;52.398;9.646;2022-09-09T09:51:25;4.60;;;1.13;;
8159;SDS011;27404;52.398;9.646;2022-09-09T09:53:52;4.03;;;1.33;;
8159;SDS011;27404;52.398;9.646;2022-09-09T09:56:25;4.80;;;1.30;;
8159;SDS011;27404;52.398;9.646;2022-09-09T09:58:57;4.83;;;1.47;;
8159;SDS011;27404;52.398;9.646;2022-09-09T10:01:30;6.80;;;1.50;;
8159;SDS011;27404;52.398;9.646;2022-09-09T10:04:01;3.40;;;1.10;;
8159;SDS011;27404;52.398;9.646;2022-09-09T10:06:41;5.57;;;1.10;;
8159;SDS011;27404;52.398;9.646;2022-09-09T10:09:23;4.03;;;1.08;;
8159;SDS011;27404;52.398;9.646;2022-09-09T10:15:05;6.70;;;1.50;;
8159;SDS011;27404;52.398;9.646;2022-09-09T10:17:53;7.47;;;1.60;;
8159;SDS011;27404;52.398;9.646;2022-09-09T10:20:42;5.00;;;1.27;;
8159;SDS011;27404;52.398;9.646;2022-09-09T10:26:32;3.60;;;1.40;;
8159;SDS011;27404;52.398;9.646;2022-09-09T10:29:10;7.95;;;1.33;;
8159;SDS011;27404;52.398;9.646;2022-09-09T10:32:00;3.47;;;1.67;;
8159;SDS011;27404;52.398;9.646;2022-09-09T10:34:56;5.03;;;1.38;;
8159;SDS011;27404;52.398;9.646;2022-09-09T10:39:56;4.68;;;1.40;;
8159;SDS011;27404;52.398;9.646;2022-09-09T10:42:40;2.38;;;1.00;;
8159;SDS011;27404;52.398;9.646;2022-09-09T10:45:16;6.00;;;1.30;;
8159;SDS011;27404;52.398;9.646;2022-09-09T10:47:55;2.60;;;1.35;;
8159;SDS011;27404;52.398;9.646;2022-09-09T10:50:39;4.70;;;1.17;;
8159;SDS011;27404;52.398;9.646;2022-09-09T10:56:02;5.67;;;1.27;;
8159;SDS011;27404;52.398;9.646;2022-09-09T10:58:38;6.60;;;1.38;;
8159;SDS011;27404;52.398;9.646;2022-09-09T11:03:54;5.23;;;1.30;;
8159;SDS011;27404;52.398;9.646;2022-09-09T11:06:28;4.30;;;0.97;;
8159;SDS011;27404;52.398;9.646;2022-09-09T11:09:00;3.53;;;1.07;;
8159;SDS011;27404;52.398;9.646;2022-09-09T11:11:33;4.17;;;1.23;;
8159;SDS011;27404;52.398;9.646;2022-09-09T11:14:09;4.17;;;1.20;;
8159;SDS011;27404;52.398;9.646;2022-09-09T11:17:04;4.00;;;1.13;;
8159;SDS011;27404;52.398;9.646;2022-09-09T11:19:36;5.07;;;1.60;;
8159;SDS011;27404;52.398;9.646;2022-09-09T11:22:26;3.93;;;1.20;;
8159;SDS011;27404;52.398;9.646;2022-09-09T11:24:59;2.67;;;1.03;;
8159;SDS011;27404;52.398;9.646;2022-09-09T11:28:32;4.13;;;1.20;;
8159;SDS011;27404;52.398;9.646;2022-09-09T11:38:45;3.33;;;1.10;;
8159;SDS011;27404;52.398;9.646;2022-09-09T11:41:16;4.63;;;1.20;;
8159;SDS011;27404;52.398;9.646;2022-09-09T11:43:46;2.67;;;0.70;;
8159;SDS011;27404;52.398;9.646;2022-09-09T11:46:16;1.43;;;0.70;;
8159;SDS011;27404;52.398;9.646;2022-09-09T11:48:45;3.20;;;0.87;;
8159;SDS011;27404;52.398;9.646;2022-09-09T11:54:28;3.00;;;1.00;;
8159;SDS011;27404;52.398;9.646;2022-09-09T11:56:54;4.67;;;0.90;;
8159;SDS011;27404;52.398;9.646;2022-09-09T11:59:21;3.17;;;1.10;;
8159;SDS011;27404;52.398;9.646;2022-09-09T12:01:55;3.67;;;0.90;;
8159;SDS011;27404;52.398;9.646;2022-09-09T12:06:52;2.30;;;0.77;;
8159;SDS011;27404;52.398;9.646;2022-09-09T12:09:25;2.10;;;0.53;;
8159;SDS011;27404;52.398;9.646;2022-09-09T12:13:07;0.70;;;0.50;;
8159;SDS011;27404;52.398;9.646;2022-09-09T12:17:27;1.90;;;0.97;;
8159;SDS011;27404;52.398;9.646;2022-09-09T12:22:51;2.23;;;0.50;;
8159;SDS011;27404;52.398;9.646;2022-09-09T12:28:16;2.10;;;0.70;;
8159;SDS011;27404;52.398;9.646;2022-09-09T12:33:16;1.63;;;0.63;;
8159;SDS011;27404;52.398;9.646;2022-09-09T12:35:44;2.00;;;0.60;;
8159;SDS011;27404;52.398;9.646;2022-09-09T12:38:17;1.63;;;0.70;;
8159;SDS011;27404;52.398;9.646;2022-09-09T12:41:21;3.27;;;0.80;;
8159;SDS011;27404;52.398;9.646;2022-09-09T12:43:48;1.67;;;0.50;;
8159;SDS011;27404;52.398;9.646;2022-09-09T12:46:30;1.98;;;0.80;;
8159;SDS011;27404;52.398;9.646;2022-09-09T12:49:05;2.22;;;0.88;;
8159;SDS011;27404;52.398;9.646;2022-09-09T12:51:49;2.97;;;0.98;;
8159;SDS011;27404;52.398;9.646;2022-09-09T12:54:15;1.70;;;0.80;;
8159;SDS011;27404;52.398;9.646;2022-09-09T12:56:44;2.17;;;0.57;;
8159;SDS011;27404;52.398;9.646;2022-09-09T12:59:21;2.42;;;0.98;;
8159;SDS011;27404;52.398;9.646;2022-09-09T13:01:56;2.40;;;0.57;;
8159;SDS011;27404;52.398;9.646;2022-09-09T13:04:22;2.45;;;0.70;;
8159;SDS011;27404;52.398;9.646;2022-09-09T13:06:48;2.78;;;0.82;;
8159;SDS011;27404;52.398;9.646;2022-09-09T13:09:14;1.48;;;0.70;;
8159;SDS011;27404;52.398;9.646;2022-09-09T13:11:43;2.40;;;0.70;;
8159;SDS011;27404;52.398;9.646;2022-09-09T13:14:55;2.55;;;1.00;;
8159;SDS011;27404;52.398;9.646;2022-09-09T13:17:17;4.18;;;0.90;;
8159;SDS011;27404;52.398;9.646;2022-09-09T13:19:47;4.57;;;1.10;;
8159;SDS011;27404;52.398;9.646;2022-09-09T13:25:03;2.55;;;0.95;;
8159;SDS011;27404;52.398;9.646;2022-09-09T13:27:33;1.75;;;0.75;;
8159;SDS011;27404;52.398;9.646;2022-09-09T13:32:58;2.72;;;1.08;;
8159;SDS011;27404;52.398;9.646;2022-09-09T13:35:27;2.17;;;0.80;;
8159;SDS011;27404;52.398;9.646;2022-09-09T13:37:53;2.20;;;0.88;;
8159;SDS011;27404;52.398;9.646;2022-09-09T13:40:22;4.25;;;1.40;;
8159;SDS011;27404;52.398;9.646;2022-09-09T13:42:50;4.20;;;1.20;;
8159;SDS011;27404;52.398;9.646;2022-09-09T13:45:19;5.47;;;1.00;;
8159;SDS011;27404;52.398;9.646;2022-09-09T13:47:49;2.53;;;0.83;;
8159;SDS011;27404;52.398;9.646;2022-09-09T13:52:49;2.27;;;0.87;;
8159;SDS011;27404;52.398;9.646;2022-09-09T13:55:22;3.97;;;1.13;;
8159;SDS011;27404;52.398;9.646;2022-09-09T14:00:25;1.70;;;0.90;;
8159;SDS011;27404;52.398;9.646;2022-09-09T14:02:53;6.27;;;0.93;;
8159;SDS011;27404;52.398;9.646;2022-09-09T14:05:20;1.93;;;1.10;;
8159;SDS011;27404;52.398;9.646;2022-09-09T14:07:47;2.50;;;1.07;;
8159;SDS011;27404;52.398;9.646;2022-09-09T14:10:13;2.40;;;0.90;;
8159;SDS011;27404;52.398;9.646;2022-09-09T14:12:39;2.67;;;0.90;;
8159;SDS011;27404;52.398;9.646;2022-09-09T14:15:06;1.70;;;0.90;;
8159;SDS011;27404;52.398;9.646;2022-09-09T14:17:33;3.10;;;0.90;;
8159;SDS011;27404;52.398;9.646;2022-09-09T14:19:58;3.63;;;1.07;;
8159;SDS011;27404;52.398;9.646;2022-09-09T14:22:24;2.33;;;1.20;;
8159;SDS011;27404;52.398;9.646;2022-09-09T14:24:50;3.70;;;0.83;;
8159;SDS011;27404;52.398;9.646;2022-09-09T14:27:16;2.92;;;1.05;;
8159;SDS011;27404;52.398;9.646;2022-09-09T14:29:43;3.13;;;0.90;;
8159;SDS011;27404;52.398;9.646;2022-09-09T14:32:10;5.57;;;0.80;;
8159;SDS011;27404;52.398;9.646;2022-09-09T14:34:36;3.58;;;1.33;;
8159;SDS011;27404;52.398;9.646;2022-09-09T14:37:02;3.20;;;1.10;;
8159;SDS011;27404;52.398;9.646;2022-09-09T14:39:27;1.85;;;0.77;;
8159;SDS011;27404;52.398;9.646;2022-09-09T14:41:53;2.72;;;0.90;;
8159;SDS011;27404;52.398;9.646;2022-09-09T14:44:18;3.40;;;0.90;;
8159;SDS011;27404;52.398;9.646;2022-09-09T14:46:44;1.90;;;0.80;;
8159;SDS011;27404;52.398;9.646;2022-09-09T14:49:10;2.88;;;0.88;;
8159;SDS011;27404;52.398;9.646;2022-09-09T14:51:36;3.05;;;0.70;;
8159;SDS011;27404;52.398;9.646;2022-09-09T14:54:01;2.30;;;0.80;;
8159;SDS011;27404;52.398;9.646;2022-09-09T14:56:28;5.45;;;1.50;;
8159;SDS011;27404;52.398;9.646;2022-09-09T14:58:55;3.00;;;0.80;;
8159;SDS011;27404;52.398;9.646;2022-09-09T15:01:23;3.33;;;1.08;;
8159;SDS011;27404;52.398;9.646;2022-09-09T15:03:56;2.25;;;0.80;;
8159;SDS011;27404;52.398;9.646;2022-09-09T15:06:30;2.70;;;0.90;;
8159;SDS011;27404;52.398;9.646;2022-09-09T15:08:58;6.18;;;1.23;;
8159;SDS011;27404;52.398;9.646;2022-09-09T15:11:28;2.60;;;0.82;;
8159;SDS011;27404;52.398;9.646;2022-09-09T15:13:55;5.45;;;2.03;;
8159;SDS011;27404;52.398;9.646;2022-09-09T15:16:23;3.30;;;0.90;;
8159;SDS011;27404;52.398;9.646;2022-09-09T15:18:51;4.75;;;1.27;;
8159;SDS011;27404;52.398;9.646;2022-09-09T15:21:19;3.53;;;0.85;;
8159;SDS011;27404;52.398;9.646;2022-09-09T15:23:46;2.10;;;1.05;;
8159;SDS011;27404;52.398;9.646;2022-09-09T15:26:16;2.63;;;1.05;;
8159;SDS011;27404;52.398;9.646;2022-09-09T15:28:44;2.53;;;1.00;;
8159;SDS011;27404;52.398;9.646;2022-09-09T15:31:19;3.17;;;0.80;;
8159;SDS011;27404;52.398;9.646;2022-09-09T15:33:47;1.48;;;0.80;;
8159;SDS011;27404;52.398;9.646;2022-09-09T15:36:15;2.45;;;0.73;;
8159;SDS011;27404;52.398;9.646;2022-09-09T15:38:41;3.53;;;1.02;;
8159;SDS011;27404;52.398;9.646;2022-09-09T15:41:06;3.45;;;1.20;;
8159;SDS011;27404;52.398;9.646;2022-09-09T15:43:32;3.43;;;1.00;;
8159;SDS011;27404;52.398;9.646;2022-09-09T15:45:58;3.20;;;1.00;;
8159;SDS011;27404;52.398;9.646;2022-09-09T15:48:44;2.40;;;0.90;;
8159;SDS011;27404;52.398;9.646;2022-09-09T15:51:10;4.07;;;1.20;;
8159;SDS011;27404;52.398;9.646;2022-09-09T15:53:36;3.40;;;1.20;;
8159;SDS011;27404;52.398;9.646;2022-09-09T15:56:04;3.17;;;0.90;;
8159;SDS011;27404;52.398;9.646;2022-09-09T15:58:32;3.03;;;1.00;;
8159;SDS011;27404;52.398;9.646;2022-09-09T16:01:15;3.47;;;0.87;;
8159;SDS011;27404;52.398;9.646;2022-09-09T16:03:42;5.27;;;1.17;;
8159;SDS011;27404;52.398;9.646;2022-09-09T16:06:08;3.50;;;1.07;;
8159;SDS011;27404;52.398;9.646;2022-09-09T16:08:38;4.77;;;1.10;;
8159;SDS011;27404;52.398;9.646;2022-09-09T16:11:12;5.07;;;1.33;;
8159;SDS011;27404;52.398;9.646;2022-09-09T16:13:40;5.93;;;1.07;;
8159;SDS011;27404;52.398;9.646;2022-09-09T16:16:08;4.03;;;1.10;;
8159;SDS011;27404;52.398;9.646;2022-09-09T16:18:36;2.73;;;1.00;;
8159;SDS011;27404;52.398;9.646;2022-09-09T16:21:04;4.10;;;1.00;;
8159;SDS011;27404;52.398;9.646;2022-09-09T16:23:33;2.75;;;1.05;;
8159;SDS011;27404;52.398;9.646;2022-09-09T16:26:00;5.95;;;1.67;;
8159;SDS011;27404;52.398;9.646;2022-09-09T16:28:26;4.75;;;1.58;;
8159;SDS011;27404;52.398;9.646;2022-09-09T16:30:52;3.35;;;1.25;;
8159;SDS011;27404;52.398;9.646;2022-09-09T16:33:18;3.08;;;1.27;;
8159;SDS011;27404;52.398;9.646;2022-09-09T16:35:43;3.38;;;1.40;;
8159;SDS011;27404;52.398;9.646;2022-09-09T16:38:09;3.67;;;0.97;;
8159;SDS011;27404;52.398;9.646;2022-09-09T16:40:35;2.33;;;1.07;;
8159;SDS011;27404;52.398;9.646;2022-09-09T16:43:04;3.40;;;0.90;;
8159;SDS011;27404;52.398;9.646;2022-09-09T16:45:30;3.07;;;1.00;;
8159;SDS011;27404;52.398;9.646;2022-09-09T16:47:57;1.57;;;1.00;;
8159;SDS011;27404;52.398;9.646;2022-09-09T16:50:23;2.87;;;1.20;;
8159;SDS011;27404;52.398;9.646;2022-09-09T16:52:49;2.07;;;1.10;;
8159;SDS011;27404;52.398;9.646;2022-09-09T16:55:15;3.70;;;1.00;;
8159;SDS011;27404;52.398;9.646;2022-09-09T16:57:41;2.53;;;1.00;;
8159;SDS011;27404;52.398;9.646;2022-09-09T17:00:06;3.43;;;1.07;;
8159;SDS011;27404;52.398;9.646;2022-09-09T17:02:33;5.10;;;1.50;;
8159;SDS011;27404;52.398;9.646;2022-09-09T17:04:58;2.87;;;1.23;;
8159;SDS011;27404;52.398;9.646;2022-09-09T17:07:24;3.17;;;1.40;;
8159;SDS011;27404;52.398;9.646;2022-09-09T17:09:50;3.10;;;1.20;;
8159;SDS011;27404;52.398;9.646;2022-09-09T17:12:15;3.93;;;1.30;;
8159;SDS011;27404;52.398;9.646;2022-09-09T17:14:41;3.57;;;1.63;;
8159;SDS011;27404;52.398;9.646;2022-09-09T17:17:07;4.03;;;1.10;;
8159;SDS011;27404;52.398;9.646;2022-09-09T17:19:33;2.23;;;0.93;;
8159;SDS011;27404;52.398;9.646;2022-09-09T17:21:58;4.80;;;2.20;;